Time,TemperatureF,DewpointF,PressureIn,WindDirection,WindDirectionDegrees,WindSpeedMPH,WindSpeedGustMPH,Humidity,HourlyPrecipIn,Conditions,Clouds,dailyrainin,SolarRadiationWatts/m^2,SoftwareType,DateUTC
2013-09-16 00:01:00,63.9,61.5,30.06,East,90,0.0,0.0,92,0.00,,,0.00,0.00,VWS V14.01,2013-09-16 04:01:00,
2013-09-16 00:03:00,63.9,61.5,30.06,East,90,0.0,0.0,92,0.00,,,0.00,0.00,VWS V14.01,2013-09-16 04:03:00,
2013-09-16 00:08:00,63.7,61.3,30.06,East,90,0.0,0.0,92,0.00,,,0.00,0.00,VWS V14.01,2013-09-16 04:08:00,
2013-09-16 00:13:00,63.7,61.3,30.06,East,90,0.0,0.0,92,0.00,,,0.00,0.00,VWS V14.01,2013-09-16 04:13:00,
2013-09-16 00:18:00,63.5,61.1,30.06,East,90,0.0,0.0,92,0.00,,,0.00,0.00,VWS V14.01,2013-09-16 04:18:00,
2013-09-16 00:23:00,63.5,61.1,30.06,East,90,0.0,0.0,92,0.00,,,0.00,0.00,VWS V14.01,2013-09-16 04:23:00,
2013-09-16 00:28:00,63.5,61.1,30.06,East,90,0.0,0.0,92,0.00,,,0.00,0.00,VWS V14.01,2013-09-16 04:28:00,
2013-09-16 00:33:00,63.5,61.1,30.06,East,90,0.0,0.0,92,0.00,,,0.00,0.00,VWS V14.01,2013-09-16 04:33:00,
2013-09-16 00:38:00,63.5,61.1,30.06,East,90,0.0,0.0,92,0.00,,,0.00,0.00,VWS V14.01,2013-09-16 04:38:00,
2013-09-16 00:43:00,63.7,61.3,30.06,East,90,0.0,0.0,92,0.00,,,0.00,0.00,VWS V14.01,2013-09-16 04:43:00,
2013-09-16 00:48:00,63.7,61.3,30.05,East,90,0.0,0.0,92,0.00,,,0.00,0.00,VWS V14.01,2013-09-16 04:48:00,
2013-09-16 00:53:00,63.9,61.5,30.05,East,90,0.0,0.0,92,0.00,,,0.00,0.00,VWS V14.01,2013-09-16 04:53:00,
2013-09-16 00:58:00,63.9,61.5,30.05,East,90,0.0,0.0,92,0.00,,,0.00,0.00,VWS V14.01,2013-09-16 04:58:00,
2013-09-16 01:03:00,64.0,61.9,30.05,East,90,0.0,0.0,93,0.00,,,0.00,0.00,VWS V14.01,2013-09-16 05:03:00,
2013-09-16 01:08:00,64.0,61.9,30.05,East,90,0.0,0.0,93,0.00,,,0.00,0.00,VWS V14.01,2013-09-16 05:08:00,
2013-09-16 01:13:00,64.2,62.1,30.05,East,90,0.0,0.0,93,0.00,,,0.00,0.00,VWS V14.01,2013-09-16 05:13:00,
2013-09-16 01:18:00,64.3,62.2,30.05,East,90,0.0,0.0,93,0.00,,,0.00,0.00,VWS V14.01,2013-09-16 05:18:00,
2013-09-16 01:23:00,64.5,62.4,30.05,East,90,0.0,0.0,93,0.00,,,0.00,0.00,VWS V14.01,2013-09-16 05:23:00,
2013-09-16 01:28:00,64.7,62.6,30.05,East,90,0.0,0.0,93,0.00,,,0.00,0.00,VWS V14.01,2013-09-16 05:28:00,
2013-09-16 01:33:00,64.7,62.6,30.05,East,90,0.0,0.0,93,0.00,,,0.00,0.00,VWS V14.01,2013-09-16 05:33:00,
2013-09-16 01:38:00,64.8,62.7,30.05,East,90,0.0,0.0,93,0.00,,,0.00,0.00,VWS V14.01,2013-09-16 05:38:00,
2013-09-16 01:43:00,64.8,62.7,30.05,East,90,0.0,0.0,93,0.00,,,0.00,0.00,VWS V14.01,2013-09-16 05:43:00,
2013-09-16 01:48:00,65.0,62.9,30.05,East,90,0.0,0.0,93,0.00,,,0.00,0.00,VWS V14.01,2013-09-16 05:48:00,
2013-09-16 01:53:00,65.2,63.1,30.05,East,90,0.0,0.0,93,0.00,,,0.00,0.00,VWS V14.01,2013-09-16 05:53:00,
2013-09-16 01:58:00,65.3,63.2,30.05,East,90,0.0,0.0,93,0.00,,,0.00,0.00,VWS V14.01,2013-09-16 05:58:00,
2013-09-16 02:03:00,65.3,63.2,30.05,East,90,0.0,0.0,93,0.00,,,0.00,0.00,VWS V14.01,2013-09-16 06:03:00,
2013-09-16 02:08:00,65.3,62.9,30.05,East,90,0.0,0.0,92,0.00,,,0.00,0.00,VWS V14.01,2013-09-16 06:08:00,
2013-09-16 02:13:00,65.2,62.8,30.05,East,90,0.0,0.0,92,0.00,,,0.00,0.00,VWS V14.01,2013-09-16 06:13:00,
2013-09-16 02:18:00,65.2,62.8,30.05,East,90,0.0,0.0,92,0.00,,,0.00,0.00,VWS V14.01,2013-09-16 06:18:00,
2013-09-16 02:23:00,65.0,62.6,30.05,East,90,0.0,0.0,92,0.00,,,0.00,0.00,VWS V14.01,2013-09-16 06:23:00,
2013-09-16 02:28:00,64.8,62.4,30.05,East,90,0.0,0.0,92,0.00,,,0.00,0.00,VWS V14.01,2013-09-16 06:28:00,
2013-09-16 02:33:00,64.7,62.3,30.05,East,90,0.0,0.0,92,0.00,,,0.00,0.00,VWS V14.01,2013-09-16 06:33:00,
2013-09-16 02:38:00,64.5,62.1,30.05,East,90,0.0,0.0,92,0.00,,,0.00,0.00,VWS V14.01,2013-09-16 06:38:00,
2013-09-16 02:43:00,64.3,61.9,30.05,East,90,0.0,0.0,92,0.00,,,0.00,0.00,VWS V14.01,2013-09-16 06:43:00,
2013-09-16 02:48:00,64.2,61.8,30.05,East,90,0.0,0.0,92,0.00,,,0.00,0.00,VWS V14.01,2013-09-16 06:48:00,
2013-09-16 02:53:00,64.2,61.8,30.05,East,90,0.0,0.0,92,0.00,,,0.00,0.00,VWS V14.01,2013-09-16 06:53:00,
2013-09-16 02:58:00,64.0,61.6,30.05,East,90,0.0,0.0,92,0.00,,,0.00,0.00,VWS V14.01,2013-09-16 06:58:00,
2013-09-16 03:03:00,63.9,61.5,30.04,East,90,0.0,0.0,92,0.00,,,0.00,0.00,VWS V14.01,2013-09-16 07:03:00,
2013-09-16 03:08:00,63.9,61.5,30.04,East,90,0.0,0.0,92,0.00,,,0.00,0.00,VWS V14.01,2013-09-16 07:08:00,
2013-09-16 03:13:00,63.7,61.3,30.04,East,90,0.0,0.0,92,0.00,,,0.00,0.00,VWS V14.01,2013-09-16 07:13:00,
2013-09-16 03:18:00,63.7,61.3,30.04,East,90,0.0,0.0,92,0.00,,,0.00,0.00,VWS V14.01,2013-09-16 07:18:00,
2013-09-16 03:23:00,63.5,61.1,30.04,East,90,0.0,0.0,92,0.00,,,0.00,0.00,VWS V14.01,2013-09-16 07:23:00,
2013-09-16 03:28:00,63.5,61.1,30.04,East,90,0.0,0.0,92,0.00,,,0.00,0.00,VWS V14.01,2013-09-16 07:28:00,
2013-09-16 03:33:00,63.4,61.0,30.03,East,90,0.0,0.0,92,0.00,,,0.00,0.00,VWS V14.01,2013-09-16 07:33:00,
2013-09-16 03:38:00,63.4,61.0,30.03,East,90,0.0,0.0,92,0.00,,,0.00,0.00,VWS V14.01,2013-09-16 07:38:00,
2013-09-16 03:43:00,63.4,61.0,30.03,East,90,0.0,0.0,92,0.00,,,0.00,0.00,VWS V14.01,2013-09-16 07:43:00,
2013-09-16 03:48:00,63.2,61.2,30.03,East,90,0.0,0.0,93,0.00,,,0.00,0.00,VWS V14.01,2013-09-16 07:48:00,
2013-09-16 03:53:00,63.2,61.2,30.03,East,90,0.0,0.0,93,0.00,,,0.00,0.00,VWS V14.01,2013-09-16 07:53:00,
2013-09-16 03:58:00,63.2,61.2,30.03,East,90,0.0,0.0,93,0.00,,,0.00,0.00,VWS V14.01,2013-09-16 07:58:00,
2013-09-16 04:03:00,63.2,61.2,30.03,East,90,0.0,0.0,93,0.00,,,0.00,0.00,VWS V14.01,2013-09-16 08:03:00,
2013-09-16 04:08:00,63.2,61.2,30.03,East,90,0.0,0.0,93,0.00,,,0.00,0.00,VWS V14.01,2013-09-16 08:08:00,
2013-09-16 04:13:00,63.4,61.7,30.03,East,90,0.0,0.0,94,0.00,,,0.00,0.00,VWS V14.01,2013-09-16 08:13:00,
2013-09-16 04:18:00,63.7,62.0,30.03,East,90,0.0,1.0,94,0.00,,,0.00,0.00,VWS V14.01,2013-09-16 08:18:00,
2013-09-16 04:23:00,63.9,62.1,30.03,North,357,0.0,0.0,94,0.00,,,0.00,0.00,VWS V14.01,2013-09-16 08:23:00,
2013-09-16 04:28:00,64.0,62.2,30.03,North,357,0.0,0.0,94,0.00,,,0.00,0.00,VWS V14.01,2013-09-16 08:28:00,
2013-09-16 04:33:00,64.2,62.4,30.03,North,357,0.0,0.0,94,0.00,,,0.00,0.00,VWS V14.01,2013-09-16 08:33:00,
2013-09-16 04:38:00,64.3,62.5,30.03,North,357,0.0,0.0,94,0.00,,,0.00,0.00,VWS V14.01,2013-09-16 08:38:00,
2013-09-16 04:43:00,64.7,63.2,30.03,North,357,0.0,0.0,95,0.00,,,0.00,0.00,VWS V14.01,2013-09-16 08:43:00,
2013-09-16 04:48:00,64.8,63.0,30.03,North,357,0.0,0.0,94,0.00,,,0.00,0.00,VWS V14.01,2013-09-16 08:48:00,
2013-09-16 04:53:00,65.0,63.5,30.03,North,357,0.0,0.0,95,0.00,,,0.00,0.00,VWS V14.01,2013-09-16 08:53:00,
2013-09-16 04:58:00,65.0,63.2,30.03,North,357,0.0,0.0,94,0.00,,,0.00,0.00,VWS V14.01,2013-09-16 08:58:00,
2013-09-16 05:03:00,65.2,63.4,30.02,North,357,0.0,0.0,94,0.00,,,0.00,0.00,VWS V14.01,2013-09-16 09:03:00,
2013-09-16 05:08:00,65.3,63.8,30.02,North,357,0.0,0.0,95,0.00,,,0.00,0.00,VWS V14.01,2013-09-16 09:08:00,
2013-09-16 05:13:00,65.5,64.0,30.02,North,357,0.0,0.0,95,0.00,,,0.00,0.00,VWS V14.01,2013-09-16 09:13:00,
2013-09-16 05:18:00,65.5,63.7,30.03,North,357,0.0,0.0,94,0.00,,,0.00,0.00,VWS V14.01,2013-09-16 09:18:00,
2013-09-16 05:23:00,65.6,64.1,30.03,North,357,0.0,0.0,95,0.00,,,0.00,0.00,VWS V14.01,2013-09-16 09:23:00,
2013-09-16 05:28:00,65.6,64.1,30.03,North,357,0.0,0.0,95,0.00,,,0.00,0.00,VWS V14.01,2013-09-16 09:28:00,
2013-09-16 05:33:00,65.8,64.3,30.03,North,357,0.0,0.0,95,0.00,,,0.00,0.00,VWS V14.01,2013-09-16 09:33:00,
2013-09-16 05:38:00,66.1,64.6,30.03,North,4,0.0,0.0,95,0.00,,,0.00,0.00,VWS V14.01,2013-09-16 09:38:00,
2013-09-16 05:43:00,66.4,64.9,30.03,North,4,0.0,0.0,95,0.00,,,0.00,0.00,VWS V14.01,2013-09-16 09:43:00,
2013-09-16 05:48:00,66.8,65.3,30.03,North,4,0.0,0.0,95,0.00,,,0.00,0.00,VWS V14.01,2013-09-16 09:48:00,
2013-09-16 05:53:00,67.1,65.6,30.03,North,4,0.0,0.0,95,0.00,,,0.00,0.00,VWS V14.01,2013-09-16 09:53:00,
2013-09-16 05:58:00,66.9,65.4,30.03,North,4,0.0,0.0,95,0.00,,,0.00,0.00,VWS V14.01,2013-09-16 09:58:00,
2013-09-16 06:03:00,66.9,65.4,30.02,North,4,0.0,0.0,95,0.00,,,0.00,0.00,VWS V14.01,2013-09-16 10:03:00,
2013-09-16 06:08:00,66.9,65.4,30.02,North,4,0.0,0.0,95,0.00,,,0.00,0.00,VWS V14.01,2013-09-16 10:08:00,
2013-09-16 06:13:00,66.9,65.4,30.02,North,4,0.0,0.0,95,0.00,,,0.00,0.00,VWS V14.01,2013-09-16 10:13:00,
2013-09-16 06:18:00,66.8,65.3,30.02,North,4,0.0,0.0,95,0.00,,,0.00,0.00,VWS V14.01,2013-09-16 10:18:00,
2013-09-16 06:23:00,66.8,65.3,30.02,North,4,0.0,0.0,95,0.00,,,0.00,0.00,VWS V14.01,2013-09-16 10:23:00,
2013-09-16 06:28:00,66.4,64.9,30.02,North,4,0.0,0.0,95,0.00,,,0.00,0.00,VWS V14.01,2013-09-16 10:28:00,
2013-09-16 06:33:00,66.4,64.9,30.02,North,4,0.0,0.0,95,0.00,,,0.00,0.00,VWS V14.01,2013-09-16 10:33:00,
2013-09-16 06:38:00,66.4,64.9,30.02,North,4,0.0,0.0,95,0.00,,,0.00,0.00,VWS V14.01,2013-09-16 10:38:00,
2013-09-16 06:43:00,66.4,64.9,30.02,North,4,0.0,0.0,95,0.00,,,0.00,0.00,VWS V14.01,2013-09-16 10:43:00,
2013-09-16 06:48:00,66.4,64.9,30.02,North,4,0.0,0.0,95,0.00,,,0.00,0.00,VWS V14.01,2013-09-16 10:48:00,
2013-09-16 06:53:00,66.4,64.9,30.02,North,4,0.0,0.0,95,0.00,,,0.00,0.00,VWS V14.01,2013-09-16 10:53:00,
2013-09-16 06:58:00,66.4,64.9,30.02,North,4,0.0,0.0,95,0.00,,,0.00,0.00,VWS V14.01,2013-09-16 10:58:00,
2013-09-16 07:03:00,66.3,64.8,30.03,North,4,0.0,0.0,95,0.00,,,0.00,7.00,VWS V14.01,2013-09-16 11:03:00,
2013-09-16 07:08:00,66.3,64.8,30.03,North,4,0.0,0.0,95,0.00,,,0.00,11.00,VWS V14.01,2013-09-16 11:08:00,
2013-09-16 07:13:00,66.3,64.8,30.03,North,4,0.0,0.0,95,0.00,,,0.00,9.00,VWS V14.01,2013-09-16 11:13:00,
2013-09-16 07:18:00,66.4,64.9,30.03,North,4,0.0,0.0,95,0.00,,,0.00,23.00,VWS V14.01,2013-09-16 11:18:00,
2013-09-16 07:23:00,66.6,65.1,30.03,North,4,0.0,0.0,95,0.00,,,0.00,18.00,VWS V14.01,2013-09-16 11:23:00,
2013-09-16 07:28:00,66.6,65.1,30.03,North,4,0.0,0.0,95,0.00,,,0.00,26.00,VWS V14.01,2013-09-16 11:28:00,
2013-09-16 07:33:00,66.8,65.3,30.04,North,4,0.0,0.0,95,0.00,,,0.00,16.00,VWS V14.01,2013-09-16 11:33:00,
2013-09-16 07:38:00,66.9,65.4,30.04,North,4,0.0,0.0,95,0.00,,,0.00,21.00,VWS V14.01,2013-09-16 11:38:00,
2013-09-16 07:43:00,67.1,65.6,30.04,North,4,0.0,0.0,95,0.00,,,0.00,16.00,VWS V14.01,2013-09-16 11:43:00,
2013-09-16 07:48:00,67.3,65.8,30.04,North,4,0.0,0.0,95,0.00,,,0.00,26.00,VWS V14.01,2013-09-16 11:48:00,
2013-09-16 07:53:00,67.4,65.9,30.04,North,4,0.0,0.0,95,0.00,,,0.00,32.00,VWS V14.01,2013-09-16 11:53:00,
2013-09-16 07:58:00,67.6,66.4,30.04,North,4,0.0,0.0,96,0.00,,,0.00,40.00,VWS V14.01,2013-09-16 11:58:00,
2013-09-16 08:03:00,67.8,66.6,30.04,North,4,0.0,0.0,96,0.00,,,0.00,26.00,VWS V14.01,2013-09-16 12:03:00,
2013-09-16 08:08:00,67.9,66.7,30.04,North,4,0.0,0.0,96,0.00,,,0.00,49.00,VWS V14.01,2013-09-16 12:08:00,
2013-09-16 08:13:00,68.1,66.9,30.04,North,4,0.0,0.0,96,0.00,,,0.00,63.00,VWS V14.01,2013-09-16 12:13:00,
2013-09-16 08:18:00,68.3,66.8,30.03,North,4,0.0,0.0,95,0.00,,,0.00,88.00,VWS V14.01,2013-09-16 12:18:00,
2013-09-16 08:23:00,68.4,67.2,30.03,North,4,1.0,1.0,96,0.00,,,0.00,125.00,VWS V14.01,2013-09-16 12:23:00,
2013-09-16 08:28:00,68.6,67.4,30.03,North,4,0.0,0.0,96,0.00,,,0.00,113.00,VWS V14.01,2013-09-16 12:28:00,
2013-09-16 08:33:00,68.8,67.3,30.03,North,4,0.0,0.0,95,0.00,,,0.00,120.00,VWS V14.01,2013-09-16 12:33:00,
2013-09-16 08:38:00,68.8,67.3,30.03,North,4,0.0,0.0,95,0.00,,,0.00,139.00,VWS V14.01,2013-09-16 12:38:00,
2013-09-16 08:43:00,69.1,67.6,30.03,North,4,0.0,0.0,95,0.00,,,0.00,162.00,VWS V14.01,2013-09-16 12:43:00,
2013-09-16 08:48:00,69.3,67.8,30.04,North,4,0.0,0.0,95,0.00,,,0.00,167.00,VWS V14.01,2013-09-16 12:48:00,
2013-09-16 08:53:00,69.6,68.1,30.04,North,4,0.0,0.0,95,0.00,,,0.00,162.00,VWS V14.01,2013-09-16 12:53:00,
2013-09-16 08:58:00,70.1,68.6,30.04,North,4,0.0,0.0,95,0.00,,,0.00,116.00,VWS V14.01,2013-09-16 12:58:00,
2013-09-16 09:03:00,70.3,68.8,30.05,North,4,0.0,0.0,95,0.00,,,0.00,98.00,VWS V14.01,2013-09-16 13:03:00,
2013-09-16 09:08:00,70.4,68.9,30.05,North,4,0.0,0.0,95,0.00,,,0.00,91.00,VWS V14.01,2013-09-16 13:08:00,
2013-09-16 09:13:00,70.6,69.1,30.05,North,4,0.0,0.0,95,0.00,,,0.00,109.00,VWS V14.01,2013-09-16 13:13:00,
2013-09-16 09:18:00,70.9,69.1,30.04,North,4,0.0,0.0,94,0.00,,,0.00,141.00,VWS V14.01,2013-09-16 13:18:00,
2013-09-16 09:23:00,71.1,69.3,30.04,North,4,0.0,2.0,94,0.00,,,0.00,113.00,VWS V14.01,2013-09-16 13:23:00,
2013-09-16 09:28:00,71.3,69.5,30.04,North,4,0.0,0.0,94,0.00,,,0.00,209.00,VWS V14.01,2013-09-16 13:28:00,
2013-09-16 09:33:00,71.6,69.8,30.04,North,4,0.0,0.0,94,0.00,,,0.00,206.00,VWS V14.01,2013-09-16 13:33:00,
2013-09-16 09:38:00,72.0,69.9,30.04,North,4,0.0,0.0,93,0.00,,,0.00,278.00,VWS V14.01,2013-09-16 13:38:00,
2013-09-16 09:43:00,72.3,70.2,30.04,North,4,0.0,0.0,93,0.00,,,0.00,338.00,VWS V14.01,2013-09-16 13:43:00,
2013-09-16 09:48:00,72.8,70.3,30.04,West,270,0.0,4.0,92,0.00,,,0.00,320.00,VWS V14.01,2013-09-16 13:48:00,
2013-09-16 09:53:00,73.3,70.5,30.04,WNW,287,2.0,3.0,91,0.00,,,0.00,313.00,VWS V14.01,2013-09-16 13:53:00,
2013-09-16 09:58:00,73.7,70.3,30.04,WSW,252,5.0,5.0,89,0.00,,,0.00,309.00,VWS V14.01,2013-09-16 13:58:00,
2013-09-16 10:03:00,74.2,70.4,30.03,WSW,254,0.0,0.0,88,0.00,,,0.00,346.00,VWS V14.01,2013-09-16 14:03:00,
2013-09-16 10:08:00,74.7,70.6,30.03,WNW,298,0.0,3.0,87,0.00,,,0.00,360.00,VWS V14.01,2013-09-16 14:08:00,
2013-09-16 10:13:00,75.1,69.9,30.03,WNW,287,0.0,1.0,84,0.00,,,0.00,316.00,VWS V14.01,2013-09-16 14:13:00,
2013-09-16 10:18:00,75.4,69.9,30.03,NW,316,0.0,0.0,83,0.00,,,0.00,251.00,VWS V14.01,2013-09-16 14:18:00,
2013-09-16 10:23:00,75.8,70.3,30.03,NW,316,0.0,0.0,83,0.00,,,0.00,207.00,VWS V14.01,2013-09-16 14:23:00,
2013-09-16 10:28:00,76.1,70.2,30.03,NW,316,0.0,0.0,82,0.00,,,0.00,237.00,VWS V14.01,2013-09-16 14:28:00,
2013-09-16 10:33:00,76.1,69.8,30.03,NW,316,0.0,1.0,81,0.00,,,0.00,253.00,VWS V14.01,2013-09-16 14:33:00,
2013-09-16 10:38:00,76.3,70.1,30.03,NW,316,0.0,1.0,81,0.00,,,0.00,309.00,VWS V14.01,2013-09-16 14:38:00,
2013-09-16 10:43:00,76.5,70.2,30.03,NW,316,4.0,4.0,81,0.00,,,0.00,325.00,VWS V14.01,2013-09-16 14:43:00,
2013-09-16 10:48:00,76.5,69.9,30.04,NW,319,0.0,0.0,80,0.00,,,0.00,462.00,VWS V14.01,2013-09-16 14:48:00,
2013-09-16 10:53:00,76.8,69.8,30.04,WNW,284,5.0,5.0,79,0.00,,,0.00,483.00,VWS V14.01,2013-09-16 14:53:00,
2013-09-16 10:58:00,77.6,70.2,30.04,NW,304,6.0,7.0,78,0.00,,,0.00,666.00,VWS V14.01,2013-09-16 14:58:00,
2013-09-16 11:03:00,77.9,69.7,30.03,WSW,258,4.0,7.0,76,0.00,,,0.00,482.00,VWS V14.01,2013-09-16 15:03:00,
2013-09-16 11:08:00,78.3,68.9,30.03,WSW,253,4.0,8.0,73,0.00,,,0.00,508.00,VWS V14.01,2013-09-16 15:08:00,
2013-09-16 11:13:00,78.6,69.2,30.03,WSW,253,0.0,0.0,73,0.00,,,0.00,271.00,VWS V14.01,2013-09-16 15:13:00,
2013-09-16 11:18:00,79.2,69.8,30.03,WNW,297,0.0,5.0,73,0.00,,,0.00,703.00,VWS V14.01,2013-09-16 15:18:00,
2013-09-16 11:23:00,79.6,69.8,30.03,West,275,3.0,4.0,72,0.00,,,0.00,640.00,VWS V14.01,2013-09-16 15:23:00,
2013-09-16 11:28:00,80.1,69.0,30.03,West,281,5.0,5.0,69,0.00,,,0.00,629.00,VWS V14.01,2013-09-16 15:28:00,
2013-09-16 11:33:00,80.5,69.0,30.03,NNW,340,0.0,4.0,68,0.00,,,0.00,756.00,VWS V14.01,2013-09-16 15:33:00,
2013-09-16 11:38:00,81.1,69.1,30.03,North,349,3.0,10.0,67,0.00,,,0.00,773.00,VWS V14.01,2013-09-16 15:38:00,
2013-09-16 11:43:00,81.8,68.9,30.03,West,259,7.0,7.0,65,0.00,,,0.00,846.00,VWS V14.01,2013-09-16 15:43:00,
2013-09-16 11:48:00,82.0,66.8,30.02,NNW,339,6.0,7.0,60,0.00,,,0.00,830.00,VWS V14.01,2013-09-16 15:48:00,
2013-09-16 11:53:00,82.4,67.6,30.02,NW,314,8.0,10.0,61,0.00,,,0.00,780.00,VWS V14.01,2013-09-16 15:53:00,
2013-09-16 11:58:00,82.6,66.3,30.02,North,354,6.0,6.0,58,0.00,,,0.00,812.00,VWS V14.01,2013-09-16 15:58:00,
2013-09-16 12:03:00,83.0,67.7,30.02,NNW,342,0.0,5.0,60,0.00,,,0.00,849.00,VWS V14.01,2013-09-16 16:03:00,
2013-09-16 12:08:00,83.4,66.6,30.02,NW,310,2.0,5.0,57,0.00,,,0.00,791.00,VWS V14.01,2013-09-16 16:08:00,
2013-09-16 12:13:00,83.8,67.5,30.02,North,349,0.0,0.0,58,0.00,,,0.00,838.00,VWS V14.01,2013-09-16 16:13:00,
2013-09-16 12:18:00,83.8,66.4,30.02,North,354,5.0,7.0,56,0.00,,,0.00,807.00,VWS V14.01,2013-09-16 16:18:00,
2013-09-16 12:23:00,83.6,66.8,30.02,NW,326,5.0,6.0,57,0.00,,,0.00,800.00,VWS V14.01,2013-09-16 16:23:00,
2013-09-16 12:28:00,83.6,67.3,30.02,NW,305,0.0,0.0,58,0.00,,,0.00,833.00,VWS V14.01,2013-09-16 16:28:00,
2013-09-16 12:33:00,83.8,67.0,30.01,West,270,0.0,9.0,57,0.00,,,0.00,265.00,VWS V14.01,2013-09-16 16:33:00,
2013-09-16 12:38:00,83.8,66.4,30.01,WNW,299,5.0,5.0,56,0.00,,,0.00,867.00,VWS V14.01,2013-09-16 16:38:00,
2013-09-16 12:43:00,84.0,66.6,30.01,NW,315,6.0,7.0,56,0.00,,,0.00,821.00,VWS V14.01,2013-09-16 16:43:00,
2013-09-16 12:48:00,84.1,65.1,30.01,North,6,3.0,7.0,53,0.00,,,0.00,870.00,VWS V14.01,2013-09-16 16:48:00,
2013-09-16 12:53:00,84.0,65.1,30.01,NNW,342,0.0,3.0,53,0.00,,,0.00,810.00,VWS V14.01,2013-09-16 16:53:00,
2013-09-16 12:58:00,84.0,65.1,30.01,North,358,3.0,5.0,53,0.00,,,0.00,888.00,VWS V14.01,2013-09-16 16:58:00,
2013-09-16 13:03:00,84.1,64.6,30.00,NW,310,3.0,5.0,52,0.00,,,0.00,858.00,VWS V14.01,2013-09-16 17:03:00,
2013-09-16 13:08:00,84.3,62.5,30.00,North,9,10.0,10.0,48,0.00,,,0.00,898.00,VWS V14.01,2013-09-16 17:08:00,
2013-09-16 13:13:00,84.5,62.7,30.00,NNW,339,0.0,2.0,48,0.00,,,0.00,179.00,VWS V14.01,2013-09-16 17:13:00,
2013-09-16 13:18:00,84.3,63.1,30.00,North,1,0.0,1.0,49,0.00,,,0.00,823.00,VWS V14.01,2013-09-16 17:18:00,
2013-09-16 13:23:00,84.5,60.2,30.00,WNW,288,3.0,4.0,44,0.00,,,0.00,721.00,VWS V14.01,2013-09-16 17:23:00,
2013-09-16 13:28:00,84.7,62.3,30.00,WNW,297,0.0,0.0,47,0.00,,,0.00,926.00,VWS V14.01,2013-09-16 17:28:00,
2013-09-16 13:33:00,85.7,61.9,30.00,NNW,334,9.0,9.0,45,0.00,,,0.00,821.00,VWS V14.01,2013-09-16 17:33:00,
2013-09-16 13:38:00,86.3,61.2,30.00,North,0,6.0,10.0,43,0.00,,,0.00,744.00,VWS V14.01,2013-09-16 17:38:00,
2013-09-16 13:43:00,86.1,61.0,30.00,NNW,338,0.0,3.0,43,0.00,,,0.00,703.00,VWS V14.01,2013-09-16 17:43:00,
2013-09-16 13:48:00,85.5,62.4,30.00,WNW,291,0.0,7.0,46,0.00,,,0.00,860.00,VWS V14.01,2013-09-16 17:48:00,
2013-09-16 13:53:00,85.5,60.5,30.00,North,352,0.0,2.0,43,0.00,,,0.00,705.00,VWS V14.01,2013-09-16 17:53:00,
2013-09-16 13:58:00,85.7,60.7,30.00,WNW,289,0.0,5.0,43,0.00,,,0.00,816.00,VWS V14.01,2013-09-16 17:58:00,
2013-09-16 14:03:00,86.1,61.0,29.99,NW,309,6.0,8.0,43,0.00,,,0.00,847.00,VWS V14.01,2013-09-16 18:03:00,
2013-09-16 14:08:00,86.7,61.5,29.99,West,266,5.0,6.0,43,0.00,,,0.00,816.00,VWS V14.01,2013-09-16 18:08:00,
2013-09-16 14:13:00,87.2,62.0,29.99,WNW,288,5.0,6.0,43,0.00,,,0.00,798.00,VWS V14.01,2013-09-16 18:13:00,
2013-09-16 14:18:00,87.4,63.5,29.99,North,351,0.0,2.0,45,0.00,,,0.00,838.00,VWS V14.01,2013-09-16 18:18:00,
2013-09-16 14:23:00,87.6,61.7,29.99,SW,224,3.0,7.0,42,0.00,,,0.00,749.00,VWS V14.01,2013-09-16 18:23:00,
2013-09-16 14:28:00,87.6,62.4,29.99,NW,316,11.0,11.0,43,0.00,,,0.00,782.00,VWS V14.01,2013-09-16 18:28:00,
2013-09-16 14:33:00,87.2,58.5,29.98,NW,311,0.0,8.0,38,0.00,,,0.00,772.00,VWS V14.01,2013-09-16 18:33:00,
2013-09-16 14:38:00,87.0,59.1,29.98,WNW,283,0.0,0.0,39,0.00,,,0.00,814.00,VWS V14.01,2013-09-16 18:38:00,
2013-09-16 14:43:00,87.0,59.8,29.98,NNW,345,3.0,5.0,40,0.00,,,0.00,802.00,VWS V14.01,2013-09-16 18:43:00,
2013-09-16 14:48:00,87.4,59.4,29.98,NW,308,2.0,3.0,39,0.00,,,0.00,772.00,VWS V14.01,2013-09-16 18:48:00,
2013-09-16 14:53:00,87.6,59.6,29.98,WNW,299,0.0,1.0,39,0.00,,,0.00,756.00,VWS V14.01,2013-09-16 18:53:00,
2013-09-16 14:58:00,88.2,60.1,29.98,North,8,3.0,6.0,39,0.00,,,0.00,761.00,VWS V14.01,2013-09-16 18:58:00,
2013-09-16 15:03:00,88.4,60.3,29.97,WNW,302,9.0,10.0,39,0.00,,,0.00,745.00,VWS V14.01,2013-09-16 19:03:00,
2013-09-16 15:08:00,88.4,59.6,29.97,WNW,300,10.0,12.0,38,0.00,,,0.00,749.00,VWS V14.01,2013-09-16 19:08:00,
2013-09-16 15:13:00,88.2,59.4,29.97,North,353,7.0,7.0,38,0.00,,,0.00,763.00,VWS V14.01,2013-09-16 19:13:00,
2013-09-16 15:18:00,88.4,58.8,29.97,North,357,6.0,9.0,37,0.00,,,0.00,768.00,VWS V14.01,2013-09-16 19:18:00,
2013-09-16 15:23:00,88.0,60.0,29.97,NNW,343,2.0,6.0,39,0.00,,,0.00,178.00,VWS V14.01,2013-09-16 19:23:00,
2013-09-16 15:28:00,87.4,60.8,29.97,NNW,345,0.0,6.0,41,0.00,,,0.00,712.00,VWS V14.01,2013-09-16 19:28:00,
2013-09-16 15:33:00,87.4,59.4,29.97,NNW,333,0.0,0.0,39,0.00,,,0.00,668.00,VWS V14.01,2013-09-16 19:33:00,
2013-09-16 15:38:00,87.6,58.1,29.97,North,0,0.0,1.0,37,0.00,,,0.00,675.00,VWS V14.01,2013-09-16 19:38:00,
2013-09-16 15:43:00,88.0,57.7,29.97,NNW,330,0.0,0.0,36,0.00,,,0.00,670.00,VWS V14.01,2013-09-16 19:43:00,
2013-09-16 15:48:00,88.4,59.6,29.95,NW,319,9.0,10.0,38,0.00,,,0.00,647.00,VWS V14.01,2013-09-16 19:48:00,
2013-09-16 15:53:00,88.6,58.2,29.95,NW,324,0.0,3.0,36,0.00,,,0.00,626.00,VWS V14.01,2013-09-16 19:53:00,
2013-09-16 15:58:00,88.4,58.1,29.95,WNW,302,5.0,9.0,36,0.00,,,0.00,601.00,VWS V14.01,2013-09-16 19:58:00,
2013-09-16 16:03:00,88.2,57.9,29.95,NW,304,0.0,3.0,36,0.00,,,0.00,605.00,VWS V14.01,2013-09-16 20:03:00,
2013-09-16 16:08:00,88.2,57.1,29.95,WNW,283,1.0,3.0,35,0.00,,,0.00,598.00,VWS V14.01,2013-09-16 20:08:00,
2013-09-16 16:13:00,88.2,57.9,29.95,NW,316,2.0,7.0,36,0.00,,,0.00,575.00,VWS V14.01,2013-09-16 20:13:00,
2013-09-16 16:18:00,88.4,58.8,29.95,West,276,6.0,6.0,37,0.00,,,0.00,578.00,VWS V14.01,2013-09-16 20:18:00,
2013-09-16 16:23:00,88.4,57.3,29.95,West,278,0.0,6.0,35,0.00,,,0.00,573.00,VWS V14.01,2013-09-16 20:23:00,
2013-09-16 16:28:00,88.0,58.5,29.95,NE,48,0.0,6.0,37,0.00,,,0.00,526.00,VWS V14.01,2013-09-16 20:28:00,
2013-09-16 16:33:00,87.6,58.9,29.95,North,352,3.0,3.0,38,0.00,,,0.00,503.00,VWS V14.01,2013-09-16 20:33:00,
2013-09-16 16:38:00,87.4,58.7,29.95,NNW,346,0.0,0.0,38,0.00,,,0.00,503.00,VWS V14.01,2013-09-16 20:38:00,
2013-09-16 16:43:00,87.6,58.9,29.95,North,2,0.0,2.0,38,0.00,,,0.00,501.00,VWS V14.01,2013-09-16 20:43:00,
2013-09-16 16:48:00,87.6,59.6,29.95,WNW,300,3.0,10.0,39,0.00,,,0.00,139.00,VWS V14.01,2013-09-16 20:48:00,
2013-09-16 16:53:00,87.0,59.1,29.95,NW,321,4.0,4.0,39,0.00,,,0.00,116.00,VWS V14.01,2013-09-16 20:53:00,
2013-09-16 16:58:00,85.7,60.0,29.95,North,0,0.0,0.0,42,0.00,,,0.00,67.00,VWS V14.01,2013-09-16 20:58:00,
2013-09-16 17:03:00,84.5,60.2,29.96,North,351,6.0,6.0,44,0.00,,,0.00,53.00,VWS V14.01,2013-09-16 21:03:00,
2013-09-16 17:08:00,83.4,61.1,29.96,NW,307,6.0,6.0,47,0.00,,,0.00,49.00,VWS V14.01,2013-09-16 21:08:00,
2013-09-16 17:13:00,82.4,60.8,29.96,NE,34,0.0,0.0,48,0.00,,,0.00,49.00,VWS V14.01,2013-09-16 21:13:00,
2013-09-16 17:18:00,81.8,61.4,29.97,North,358,1.0,7.0,50,0.00,,,0.00,54.00,VWS V14.01,2013-09-16 21:18:00,
2013-09-16 17:23:00,81.2,61.4,29.97,North,358,1.0,5.0,51,0.00,,,0.00,79.00,VWS V14.01,2013-09-16 21:23:00,
2013-09-16 17:28:00,81.2,61.4,29.97,NNW,335,4.0,11.0,51,0.00,,,0.00,132.00,VWS V14.01,2013-09-16 21:28:00,
2013-09-16 17:33:00,81.2,61.9,29.97,North,1,0.0,1.0,52,0.00,,,0.00,163.00,VWS V14.01,2013-09-16 21:33:00,
2013-09-16 17:38:00,81.2,61.9,29.97,North,1,5.0,5.0,52,0.00,,,0.00,116.00,VWS V14.01,2013-09-16 21:38:00,
2013-09-16 17:43:00,81.1,61.3,29.97,North,1,7.0,7.0,51,0.00,,,0.00,105.00,VWS V14.01,2013-09-16 21:43:00,
2013-09-16 17:48:00,80.5,60.7,29.98,NNE,29,0.0,0.0,51,0.00,,,0.00,149.00,VWS V14.01,2013-09-16 21:48:00,
2013-09-16 17:53:00,80.3,60.5,29.98,North,1,5.0,10.0,51,0.00,,,0.00,267.00,VWS V14.01,2013-09-16 21:53:00,
2013-09-16 17:58:00,80.3,60.5,29.98,North,4,7.0,7.0,51,0.00,,,0.00,123.00,VWS V14.01,2013-09-16 21:58:00,
2013-09-16 18:03:00,80.1,60.4,29.99,North,354,7.0,10.0,51,0.00,,,0.00,79.00,VWS V14.01,2013-09-16 22:03:00,
2013-09-16 18:08:00,79.8,60.6,29.99,North,0,0.0,3.0,52,0.00,,,0.00,58.00,VWS V14.01,2013-09-16 22:08:00,
2013-09-16 18:12:00,79.4,59.7,29.99,NNE,13,0.0,2.0,51,0.00,,,0.00,60.00,VWS V14.01,2013-09-16 22:12:00,
2013-09-16 18:17:00,79.0,59.9,29.99,North,1,1.0,4.0,52,0.00,,,0.00,70.00,VWS V14.01,2013-09-16 22:17:00,
2013-09-16 18:22:00,78.6,60.1,29.99,North,1,4.0,4.0,53,0.00,,,0.00,79.00,VWS V14.01,2013-09-16 22:22:00,
2013-09-16 18:27:00,78.5,60.5,29.99,North,0,0.0,0.0,54,0.00,,,0.00,86.00,VWS V14.01,2013-09-16 22:27:00,
2013-09-16 18:32:00,78.3,60.8,30.00,North,0,0.0,0.0,55,0.00,,,0.00,63.00,VWS V14.01,2013-09-16 22:32:00,
2013-09-16 18:37:00,78.1,60.6,30.00,North,0,6.0,7.0,55,0.00,,,0.00,62.00,VWS V14.01,2013-09-16 22:37:00,
2013-09-16 18:42:00,77.9,60.5,30.00,NE,44,2.0,2.0,55,0.00,,,0.00,51.00,VWS V14.01,2013-09-16 22:42:00,
2013-09-16 18:47:00,77.7,60.3,30.00,NNE,15,0.0,0.0,55,0.00,,,0.00,37.00,VWS V14.01,2013-09-16 22:47:00,
2013-09-16 18:52:00,77.4,60.5,30.00,North,0,2.0,4.0,56,0.00,,,0.00,21.00,VWS V14.01,2013-09-16 22:52:00,
2013-09-16 18:57:00,77.2,60.3,30.00,NE,54,5.0,8.0,56,0.00,,,0.00,19.00,VWS V14.01,2013-09-16 22:57:00,
2013-09-16 19:02:00,76.8,59.9,30.00,NW,307,0.0,5.0,56,0.00,,,0.00,12.00,VWS V14.01,2013-09-16 23:02:00,
2013-09-16 19:07:00,76.7,59.8,30.00,North,0,6.0,6.0,56,0.00,,,0.00,7.00,VWS V14.01,2013-09-16 23:07:00,
2013-09-16 19:12:00,76.3,60.0,30.00,North,0,2.0,6.0,57,0.00,,,0.00,5.00,VWS V14.01,2013-09-16 23:12:00,
2013-09-16 19:17:00,76.1,60.3,30.01,North,3,0.0,1.0,58,0.00,,,0.00,0.00,VWS V14.01,2013-09-16 23:17:00,
2013-09-16 19:22:00,76.0,60.7,30.01,North,0,0.0,0.0,59,0.00,,,0.00,0.00,VWS V14.01,2013-09-16 23:22:00,
2013-09-16 19:27:00,75.8,60.5,30.01,NE,37,0.0,0.0,59,0.00,,,0.00,0.00,VWS V14.01,2013-09-16 23:27:00,
2013-09-16 19:32:00,75.6,60.3,30.02,NE,50,3.0,3.0,59,0.00,,,0.00,0.00,VWS V14.01,2013-09-16 23:32:00,
2013-09-16 19:37:00,75.4,60.6,30.02,NE,45,5.0,5.0,60,0.00,,,0.00,0.00,VWS V14.01,2013-09-16 23:37:00,
2013-09-16 19:42:00,75.3,60.9,30.02,NE,34,0.0,0.0,61,0.00,,,0.00,0.00,VWS V14.01,2013-09-16 23:42:00,
2013-09-16 19:47:00,75.1,60.8,30.02,NE,34,0.0,0.0,61,0.00,,,0.00,0.00,VWS V14.01,2013-09-16 23:47:00,
2013-09-16 19:52:00,75.1,61.2,30.02,NE,34,0.0,0.0,62,0.00,,,0.00,0.00,VWS V14.01,2013-09-16 23:52:00,
2013-09-16 19:57:00,74.9,61.0,30.02,NE,34,0.0,0.0,62,0.00,,,0.00,0.00,VWS V14.01,2013-09-16 23:57:00,
2013-09-16 20:02:00,74.7,60.8,30.03,NE,34,0.0,0.0,62,0.00,,,0.00,0.00,VWS V14.01,2013-09-17 00:02:00,
2013-09-16 20:07:00,74.7,61.3,30.03,NE,34,0.0,0.0,63,0.00,,,0.00,0.00,VWS V14.01,2013-09-17 00:07:00,
2013-09-16 20:12:00,74.6,61.2,30.03,NE,34,0.0,0.0,63,0.00,,,0.00,0.00,VWS V14.01,2013-09-17 00:12:00,
2013-09-16 20:17:00,74.6,60.7,30.04,NE,34,0.0,0.0,62,0.00,,,0.00,0.00,VWS V14.01,2013-09-17 00:17:00,
2013-09-16 20:22:00,74.4,60.5,30.04,North,11,0.0,0.0,62,0.00,,,0.00,0.00,VWS V14.01,2013-09-17 00:22:00,
2013-09-16 20:27:00,74.2,60.4,30.04,ENE,65,0.0,0.0,62,0.00,,,0.00,0.00,VWS V14.01,2013-09-17 00:27:00,
2013-09-16 20:32:00,74.2,61.2,30.05,ENE,64,4.0,4.0,64,0.00,,,0.00,0.00,VWS V14.01,2013-09-17 00:32:00,
2013-09-16 20:37:00,74.0,61.1,30.05,ENE,65,0.0,0.0,64,0.00,,,0.00,0.00,VWS V14.01,2013-09-17 00:37:00,
2013-09-16 20:42:00,73.9,60.5,30.05,East,82,3.0,3.0,63,0.00,,,0.00,0.00,VWS V14.01,2013-09-17 00:42:00,
2013-09-16 20:47:00,73.9,61.0,30.05,NE,56,4.0,4.0,64,0.00,,,0.00,0.00,VWS V14.01,2013-09-17 00:47:00,
2013-09-16 20:52:00,73.7,60.8,30.05,NE,52,0.0,0.0,64,0.00,,,0.00,0.00,VWS V14.01,2013-09-17 00:52:00,
2013-09-16 20:57:00,73.5,61.0,30.05,NE,36,2.0,6.0,65,0.00,,,0.00,0.00,VWS V14.01,2013-09-17 00:57:00,
2013-09-16 21:02:00,73.2,61.2,30.06,ENE,65,4.0,4.0,66,0.00,,,0.00,0.00,VWS V14.01,2013-09-17 01:02:00,
2013-09-16 21:07:00,73.2,61.6,30.06,ENE,63,5.0,8.0,67,0.00,,,0.00,0.00,VWS V14.01,2013-09-17 01:07:00,
2013-09-16 21:12:00,73.0,61.8,30.06,East,90,0.0,0.0,68,0.00,,,0.00,0.00,VWS V14.01,2013-09-17 01:12:00,
2013-09-16 21:17:00,72.8,61.6,30.06,NNE,12,0.0,0.0,68,0.00,,,0.00,0.00,VWS V14.01,2013-09-17 01:17:00,
2013-09-16 21:22:00,72.7,61.5,30.06,NNE,30,2.0,4.0,68,0.00,,,0.00,0.00,VWS V14.01,2013-09-17 01:22:00,
2013-09-16 21:27:00,72.7,62.0,30.06,NE,55,3.0,3.0,69,0.00,,,0.00,0.00,VWS V14.01,2013-09-17 01:27:00,
2013-09-16 21:32:00,72.5,61.8,30.07,North,0,1.0,9.0,69,0.00,,,0.00,0.00,VWS V14.01,2013-09-17 01:32:00,
2013-09-16 21:37:00,72.3,61.6,30.07,ENE,71,0.0,3.0,69,0.00,,,0.00,0.00,VWS V14.01,2013-09-17 01:37:00,
2013-09-16 21:42:00,72.3,62.0,30.07,NE,47,3.0,5.0,70,0.00,,,0.00,0.00,VWS V14.01,2013-09-17 01:42:00,
2013-09-16 21:47:00,72.1,61.8,30.08,NE,50,2.0,4.0,70,0.00,,,0.00,0.00,VWS V14.01,2013-09-17 01:47:00,
2013-09-16 21:52:00,72.0,62.1,30.08,ENE,70,0.0,3.0,71,0.00,,,0.00,0.00,VWS V14.01,2013-09-17 01:52:00,
2013-09-16 21:57:00,71.8,61.9,30.08,ESE,104,4.0,11.0,71,0.00,,,0.00,0.00,VWS V14.01,2013-09-17 01:57:00,
2013-09-16 22:02:00,71.8,61.9,30.09,North,355,9.0,9.0,71,0.00,,,0.00,0.00,VWS V14.01,2013-09-17 02:02:00,
2013-09-16 22:07:00,71.6,61.7,30.09,ENE,66,1.0,1.0,71,0.00,,,0.00,0.00,VWS V14.01,2013-09-17 02:07:00,
2013-09-16 22:12:00,71.5,61.6,30.09,NE,53,2.0,8.0,71,0.00,,,0.00,0.00,VWS V14.01,2013-09-17 02:12:00,
2013-09-16 22:17:00,71.5,62.0,30.09,East,90,0.0,5.0,72,0.00,,,0.00,0.00,VWS V14.01,2013-09-17 02:17:00,
2013-09-16 22:22:00,71.3,61.8,30.09,NE,40,0.0,1.0,72,0.00,,,0.00,0.00,VWS V14.01,2013-09-17 02:22:00,
2013-09-16 22:27:00,71.1,61.2,30.09,NNE,17,4.0,13.0,71,0.00,,,0.00,0.00,VWS V14.01,2013-09-17 02:27:00,
2013-09-16 22:32:00,70.8,60.1,30.09,NE,44,0.0,11.0,69,0.00,,,0.00,0.00,VWS V14.01,2013-09-17 02:32:00,
2013-09-16 22:37:00,70.4,59.3,30.09,North,1,2.0,7.0,68,0.00,,,0.00,0.00,VWS V14.01,2013-09-17 02:37:00,
2013-09-16 22:42:00,70.3,59.2,30.09,ENE,70,5.0,10.0,68,0.00,,,0.00,0.00,VWS V14.01,2013-09-17 02:42:00,
2013-09-16 22:47:00,70.1,59.1,30.09,NE,34,3.0,10.0,68,0.00,,,0.00,0.00,VWS V14.01,2013-09-17 02:47:00,
2013-09-16 22:52:00,69.9,58.9,30.09,NNE,23,0.0,6.0,68,0.00,,,0.00,0.00,VWS V14.01,2013-09-17 02:52:00,
2013-09-16 22:57:00,69.8,58.8,30.09,NE,43,5.0,6.0,68,0.00,,,0.00,0.00,VWS V14.01,2013-09-17 02:57:00,
2013-09-16 23:02:00,69.6,59.0,30.10,NNE,20,0.0,0.0,69,0.00,,,0.00,0.00,VWS V14.01,2013-09-17 03:02:00,
2013-09-16 23:07:00,69.4,58.8,30.10,East,82,0.0,5.0,69,0.00,,,0.00,0.00,VWS V14.01,2013-09-17 03:07:00,
2013-09-16 23:12:00,69.3,59.1,30.10,NE,45,4.0,6.0,70,0.00,,,0.00,0.00,VWS V14.01,2013-09-17 03:12:00,
2013-09-16 23:17:00,69.1,58.9,30.11,North,1,6.0,6.0,70,0.00,,,0.00,0.00,VWS V14.01,2013-09-17 03:17:00,
2013-09-16 23:22:00,69.1,58.9,30.11,East,94,5.0,5.0,70,0.00,,,0.00,0.00,VWS V14.01,2013-09-17 03:22:00,
2013-09-16 23:27:00,69.1,58.9,30.11,NNE,19,0.0,6.0,70,0.00,,,0.00,0.00,VWS V14.01,2013-09-17 03:27:00,
2013-09-16 23:32:00,69.1,58.9,30.11,NNE,25,0.0,4.0,70,0.00,,,0.00,0.00,VWS V14.01,2013-09-17 03:32:00,
2013-09-16 23:37:00,68.9,59.1,30.11,NE,40,5.0,10.0,71,0.00,,,0.00,0.00,VWS V14.01,2013-09-17 03:37:00,
2013-09-16 23:42:00,68.8,59.0,30.11,NNE,20,1.0,8.0,71,0.00,,,0.00,0.00,VWS V14.01,2013-09-17 03:42:00,
2013-09-16 23:47:00,68.6,59.2,30.11,NNE,18,0.0,1.0,72,0.00,,,0.00,0.00,VWS V14.01,2013-09-17 03:47:00,
2013-09-16 23:52:00,68.4,59.0,30.11,NNW,347,4.0,4.0,72,0.00,,,0.00,0.00,VWS V14.01,2013-09-17 03:52:00,
2013-09-16 23:57:00,68.4,59.0,30.11,NE,49,4.0,7.0,72,0.00,,,0.00,0.00,VWS V14.01,2013-09-17 03:57:00,